Home > Products > Valid Products > TAF

000
FTUS45 KPSR 202000 AAA
TAFPHX
TAF AMD
KPHX 202052Z 2021/2118 27007KT P6SM FEW100
     FM210500 VRB04KT P6SM SKC
     FM211000 10006KT P6SM SKC=



000
FTUS45 KPSR 201700
TAFIWA
TAF
KIWA 201720Z 2018/2118 18005KT P6SM SKC
     FM201930 28006KT P6SM FEW120
     FM210500 12005KT P6SM SKC=



000
FTUS45 KPSR 201700
TAFIPL
TAF
KIPL 201720Z 2018/2118 14005KT P6SM SKC
     FM210300 VRB04KT P6SM SKC
     FM211100 14005KT P6SM SKC=



000
FTUS45 KPSR 201700
TAFBLH
TAF
KBLH 201720Z 2018/2118 18007KT P6SM SKC
     FM211000 VRB04KT P6SM SKC=



000
FTUS45 KPSR 201700
TAFPHX
TAF
KPHX 201720Z 2018/2118 14004KT P6SM SKC
     FM202000 27008KT P6SM FEW120
     FM210500 VRB04KT P6SM SKC
     FM211000 10006KT P6SM SKC=



000
FTUS45 KPSR 201400 AAA
TAFPHX
TAF AMD
KPHX 201440Z 2015/2112 09006KT P6SM SKC
     FM202000 27008KT P6SM FEW120
     FM210500 VRB04KT P6SM SKC=



000
FTUS45 KPSR 201100
TAFBLH
TAF
KBLH 201120Z 2012/2112 18007KT P6SM SKC=



000
FTUS45 KPSR 201100
TAFIWA
TAF
KIWA 201120Z 2012/2112 12006KT P6SM SKC
     FM201900 28006KT P6SM FEW120
     FM210500 13005KT P6SM SKC
      AMD LTD TO CLD VIS AND WIND TIL 201300=



000
FTUS45 KPSR 201100
TAFPHX
TAF
KPHX 201120Z 2012/2112 09006KT P6SM SKC
     FM202000 27008KT P6SM FEW120
     FM210500 VRB04KT P6SM SKC=



000
FTUS45 KPSR 201100
TAFIPL
TAF
KIPL 201120Z 2012/2112 14005KT P6SM SKC
     FM210300 VRB04KT P6SM SKC=



000
FTUS45 KPSR 200900 AAA
TAFPHX
TAF AMD
KPHX 200906Z 2009/2106 09005KT P6SM SKC
     FM202000 27010KT P6SM FEW100
     FM210300 27005KT P6SM FEW120=



000
FTUS45 KPSR 200500
TAFPHX
TAF
KPHX 200527Z 2006/2106 VRB05KT P6SM FEW140
     FM200800 09005KT P6SM SKC
     FM202000 27010KT P6SM FEW100
     FM210300 27005KT P6SM FEW120=



000
FTUS45 KPSR 200500
TAFIWA
TAF
KIWA 200527Z 2006/2106 VRB05KT P6SM FEW140
     FM200800 09005KT P6SM SKC
     FM202000 25008KT P6SM FEW100
     FM210300 VRB05KT P6SM FEW120
      AMD LTD TO CLD VIS AND WIND TIL 201300=



000
FTUS45 KPSR 200500
TAFIPL
TAF
KIPL 200527Z 2006/2106 VRB05KT P6SM SKC=



000
FTUS45 KPSR 200500
TAFBLH
TAF
KBLH 200527Z 2006/2106 23005KT P6SM SKC
     FM201100 VRB04KT P6SM SKC
     FM202100 23007KT P6SM SKC
     FM210300 21010KT P6SM SKC=



000
FTUS45 KPSR 200200 AAA
TAFPHX
TAF AMD
KPHX 200259Z 2003/2024 26005KT P6SM SCT160
     FM200300 VRB05KT P6SM FEW160 SCT200
     FM200700 09005KT P6SM SKC
     FM202000 27008KT P6SM FEW080=



000
FTUS45 KPSR 192300
TAFIPL
TAF
KIPL 192321Z 2000/2024 14005KT P6SM SKC
     FM200200 27004KT P6SM SKC=



000
FTUS45 KPSR 192300
TAFIWA
TAF
KIWA 192321Z 2000/2024 24005KT P6SM FEW080 BKN160
     FM200400 13004KT P6SM FEW140 SCT250
     FM200700 12006KT P6SM SKC
     FM201900 24006KT P6SM FEW080
      AMD LTD TO CLD VIS AND WIND 2003/2013=



000
FTUS45 KPSR 192300
TAFPHX
TAF
KPHX 192321Z 2000/2024 29007KT P6SM FEW080 BKN160
     FM200300 VRB05KT P6SM FEW160 SCT200
     FM200700 09005KT P6SM SKC
     FM202000 27008KT P6SM FEW080=



000
FTUS45 KPSR 192300
TAFBLH
TAF
KBLH 192321Z 2000/2024 18007KT P6SM BKN100
     FM200300 21005KT P6SM SKC
     FM201100 VRB04KT P6SM SKC=



000
FTUS45 KPSR 192000 AAB
TAFPHX
TAF AMD
KPHX 192048Z 1921/2018 16008G15KT P6SM FEW080 SCT120
     FM192200 18007KT P6SM VCSH SCT080 SCT120
     FM200000 VRB05KT P6SM FEW100 SCT250
     FM201200 10005KT P6SM FEW100=



000
FTUS45 KPSR 191900 AAA
TAFPHX
TAF AMD
KPHX 191952Z 1920/2018 17008KT P6SM FEW080 BKN120 BKN200
     FM192100 24007KT P6SM VCSH SCT080 SCT120 BKN200
     FM200000 27005KT P6SM FEW100 SCT250
     FM201200 10005KT P6SM FEW100=



000
FTUS45 KPSR 191700
TAFBLH
TAF
KBLH 191720Z 1918/2018 13005KT P6SM FEW100 SCT250
     FM200300 21005KT P6SM SKC
     FM201100 VRB04KT P6SM SKC=



000
FTUS45 KPSR 191700
TAFIPL
TAF
KIPL 191720Z 1918/2018 VRB04KT P6SM FEW100 SCT150
     FM192000 14005KT P6SM FEW100
     FM200200 VRB04KT P6SM SKC=



000
FTUS45 KPSR 191700
TAFPHX
TAF
KPHX 191720Z 1918/2018 14005KT P6SM VCSH FEW080 BKN120 BKN200
     FM192000 24007KT P6SM VCSH SCT080 SCT120 BKN200
     FM200000 27005KT P6SM FEW100 SCT250
     FM201200 10005KT P6SM FEW100=



000
FTUS45 KPSR 191700
TAFIWA
TAF
KIWA 191720Z 1918/2018 19005KT P6SM VCSH SCT080 BKN120 BKN200
     FM192100 24007KT P6SM VCSH SCT080 SCT120 BKN200
     FM200500 13004KT P6SM FEW100 SCT250=



000
FTUS45 KPSR 191400 AAA
TAFPHX
TAF AMD
KPHX 191442Z 1915/2012 13005KT P6SM VCSH FEW080 BKN120 BKN200
     FM192000 24007KT P6SM VCSH SCT080 SCT120 BKN200
     FM200200 27005KT P6SM FEW100 SCT250=



000
FTUS45 KPSR 191100
TAFIPL
TAF
KIPL 191138Z 1912/2012 VRB04KT P6SM FEW100 SCT150
     FM191900 10005KT P6SM FEW250
     FM200200 VRB04KT P6SM SKC=



000
FTUS45 KPSR 191100
TAFBLH
TAF
KBLH 191138Z 1912/2012 36005KT P6SM SCT100 BKN150
     FM192000 13005KT P6SM FEW100 SCT250
     FM200300 21005KT P6SM SKC=



000
FTUS45 KPSR 191100
TAFIWA
TAF
KIWA 191138Z 1912/2012 12005KT P6SM VCSH FEW080 BKN120 BKN200
     FM191900 24007KT P6SM VCSH SCT080 SCT120 BKN200
     FM200500 14004KT P6SM FEW100 SCT250
      AMD LTD TO CLD VIS AND WIND TIL 191300=



000
FTUS45 KPSR 191100
TAFPHX
TAF
KPHX 191138Z 1912/2012 09005KT P6SM VCSH FEW080 BKN120 BKN200
     FM191900 24007KT P6SM VCSH SCT080 SCT120 BKN200
     FM200300 27005KT P6SM FEW100 SCT250=



000
FTUS45 KPSR 190900 AAA
TAFPHX
TAF AMD
KPHX 190904Z 1909/2006 12005KT P6SM FEW080 SCT120 BKN200
     FM191900 27005KT P6SM VCSH SCT080 BKN120 BKN200
     FM200300 27005KT P6SM FEW080 SCT250=



000
FTUS45 KPSR 190500
TAFBLH
TAF
KBLH 190522Z 1906/2006 13005KT P6SM FEW090 BKN120
     FM190700 06005KT P6SM FEW120 BKN160
     FM192300 26005KT P6SM FEW120 BKN250=



000
FTUS45 KPSR 190500
TAFIPL
TAF
KIPL 190522Z 1906/2006 13010KT P6SM FEW140 BKN200
     FM191200 27004KT P6SM FEW140 BKN250=



000
FTUS45 KPSR 190500
TAFIWA
TAF
KIWA 190522Z 1906/2006 09005KT P6SM FEW090 BKN120
     FM191900 24005KT P6SM VCSH SCT080 BKN140 BKN200
     FM200300 27005KT P6SM FEW080 SCT250
      AMD LTD TO CLD VIS AND WIND TIL 191300=



000
FTUS45 KPSR 190500
TAFPHX
TAF
KPHX 190522Z 1906/2006 14005KT P6SM FEW090 BKN120
     FM191900 27005KT P6SM VCSH SCT080 BKN140 BKN200
     FM200300 27005KT P6SM FEW080 SCT250=



000
FTUS45 KPSR 190300 AAA
TAFPHX
TAF AMD
KPHX 190307Z 1903/1924 10005KT P6SM BKN120
     FM191900 27005KT P6SM VCSH SCT080 BKN140 BKN200=



000
FTUS45 KPSR 190200 AAA
TAFBLH
TAF AMD
KBLH 190221Z 1902/1924 14012KT P6SM FEW090 BKN120
     FM190700 18006KT P6SM BKN140
     FM191700 17005KT P6SM FEW140 BKN200=



000
FTUS45 KPSR 182300
TAFBLH
TAF
KBLH 182321Z 1900/1924 18009KT P6SM VCSH FEW090 BKN120
     FM190300 18006KT P6SM BKN140
     FM191700 17005KT P6SM FEW140 BKN200=



000
FTUS45 KPSR 182300
TAFIPL
TAF
KIPL 182321Z 1900/1924 10005KT P6SM FEW090 BKN140 BKN200
     FM190300 29005KT P6SM SCT140 BKN200=



000
FTUS45 KPSR 182300
TAFIWA
TAF
KIWA 182321Z 1900/1924 20007KT P6SM VCSH SCT080 BKN100
     FM190200 12005KT P6SM FEW080 BKN120
     FM191900 24005KT P6SM VCSH SCT080 BKN140 BKN200
      AMD LTD TO CLD VIS AND WIND 1903/1913=



000
FTUS45 KPSR 182300
TAFPHX
TAF
KPHX 182321Z 1900/1924 14007KT P6SM VCSH FEW060 SCT080 BKN100
     FM190200 10005KT P6SM FEW080 BKN120
     FM191900 27005KT P6SM VCSH SCT080 BKN140 BKN200=



000
FTUS45 KPSR 182100 AAA
TAFIWA
TAF AMD
KIWA 182105Z 1821/1918 22010KT P6SM SCT070 BKN100 BKN150
      TEMPO 1822/1901 21012G20KT
     FM190400 14007KT P6SM VCSH SCT080 BKN120 BKN200=



000
FTUS45 KPSR 182000 AAA
TAFIPL
TAF AMD
KIPL 182007Z 1820/1918 VRB06KT P6SM VCSH SCT090 BKN120 BKN200
     FM190400 24007KT P6SM FEW080 SCT120 BKN200=



000
FTUS45 KPSR 182000 AAA
TAFBLH
TAF AMD
KBLH 182005Z 1820/1918 18010KT P6SM VCSH FEW090 SCT120 BKN200
      TEMPO 1820/1823 18012G20KT SCT090 BKN120
     FM190500 VRB05KT P6SM FEW080 SCT120 BKN200=



000
FTUS45 KPSR 182000 AAC
TAFPHX
TAF AMD
KPHX 182003Z 1820/1918 15011KT P6SM VCSH SCT100 BKN150 BKN200
      TEMPO 1820/1823 18015G22KT P6SM -RA FEW070 BKN100 OVC150
     FM190200 VRB06KT P6SM SCT080 SCT120 BKN200
     FM190800 10005KT P6SM VCSH SCT080 BKN100 BKN200=



000
FTUS45 KPSR 181800 AAB
TAFPHX
TAF AMD
KPHX 181840Z 1819/1918 17012KT P6SM SCT100 BKN150 BKN200
      TEMPO 1819/1821 18015G25KT P6SM -RA FEW070 BKN100 OVC150
     FM190200 VRB06KT P6SM SCT080 SCT120 BKN200
     FM190800 10005KT P6SM VCSH SCT080 BKN100 BKN200=



000
FTUS45 KPSR 181800 AAA
TAFPHX
TAF AMD
KPHX 181805Z 1818/1918 17010KT P6SM SCT120 BKN150 BKN200
      TEMPO 1818/1821 21012G20KT P6SM BKN120 OVC150
     FM190200 VRB06KT P6SM SCT080 SCT120 BKN200
     FM190800 10005KT P6SM VCSH SCT080 BKN100 BKN200=



000
FTUS45 KPSR 181700
TAFIPL
TAF
KIPL 181720Z 1818/1918 14006KT P6SM SCT120 SCT150 BKN200
     FM182200 VRB06KT P6SM VCSH SCT090 BKN120 BKN200
     FM190400 24007KT P6SM FEW080 SCT120 BKN200=



000
FTUS45 KPSR 181700
TAFIWA
TAF
KIWA 181720Z 1818/1918 18010KT P6SM SCT120 BKN200
     FM182200 21010KT P6SM SCT100 BKN150 OVC200
      TEMPO 1822/1901 21012G20KT
     FM190400 14007KT P6SM VCSH SCT080 BKN120 BKN200=



000
FTUS45 KPSR 181700
TAFPHX
TAF
KPHX 181720Z 1818/1918 15010KT P6SM SCT120 BKN200
      TEMPO 1819/1822 17012G20KT P6SM SCT100 BKN150
     FM190200 VRB06KT P6SM SCT080 SCT120 BKN200
     FM190800 10005KT P6SM VCSH SCT080 BKN100 BKN200=



000
FTUS45 KPSR 181700
TAFBLH
TAF
KBLH 181720Z 1818/1918 18012G22KT P6SM VCSH FEW090 SCT120 BKN200
     FM182300 16007KT P6SM VCSH SCT090 BKN120 BKN200
     FM190500 VRB05KT P6SM FEW080 SCT120 BKN200=



000
FTUS45 KPSR 181400 AAA
TAFPHX
TAF AMD
KPHX 181450Z 1815/1912 10006KT P6SM FEW150 SCT200 BKN250
     FM181700 15010KT P6SM SCT120 BKN200
      TEMPO 1818/1822 17012G20KT P6SM BKN150
     FM190200 VRB06KT P6SM VCSH SCT080 SCT120 BKN200
     FM191000 10005KT P6SM VCSH FEW080 SCT120 BKN200=



000
FTUS45 KPSR 181100
TAFIPL
TAF
KIPL 181140Z 1812/1912 14006KT P6SM SCT120 BKN200
     FM182300 VRB06KT P6SM VCSH SCT090 SCT120 BKN200
     FM190200 24007KT P6SM FEW080 SCT200=



000
FTUS45 KPSR 181100
TAFBLH
TAF
KBLH 181140Z 1812/1912 18006KT P6SM SCT120 BKN200
     FM181700 18012G22KT P6SM VCSH FEW090 SCT120 BKN200
     FM182300 16007KT P6SM VCSH SCT090 SCT120 BKN200
     FM190500 31006KT P6SM FEW080 BKN200=



000
FTUS45 KPSR 181100
TAFPHX
TAF
KPHX 181140Z 1812/1912 09006KT P6SM SCT150 BKN250
     FM181600 15010KT P6SM SCT120 BKN200
      TEMPO 1818/1822 17012G20KT P6SM BKN150
     FM190200 VRB06KT P6SM VCSH SCT080 SCT120 BKN200
     FM191000 10005KT P6SM VCSH FEW080 SCT120 BKN200=



000
FTUS45 KPSR 181100
TAFIWA
TAF
KIWA 181140Z 1812/1912 09006KT P6SM FEW150 BKN250
     FM181600 18010KT P6SM SCT120 BKN200
     FM182200 21012G20KT P6SM SCT100 BKN150
     FM190200 14007KT P6SM VCSH SCT080 SCT120 BKN200
      AMD LTD TO CLD VIS AND WIND TIL 181300=



000
FTUS45 KPSR 180800 AAA
TAFPHX
TAF AMD
KPHX 180859Z 1809/1906 27005KT P6SM FEW150 BKN250
     FM181030 09005KT P6SM SCT150 BKN200
     FM181700 17012KT P6SM SCT120 BKN200
     FM182200 23012G20KT P6SM VCSH BKN100 BKN150
     FM190300 09012KT P6SM SCT080 BKN150=



000
FTUS45 KPSR 180500
TAFIWA
TAF
KIWA 180521Z 1806/1906 VRB05KT P6SM BKN250
     FM180800 09005KT P6SM FEW150 BKN250
     FM181600 17012KT P6SM FEW120 BKN180
     FM182200 23012G20KT P6SM VCSH OVC100
     FM190300 09012KT P6SM SCT080 BKN200
      AMD LTD TO CLD VIS AND WIND TIL 181300=



000
FTUS45 KPSR 180500
TAFIPL
TAF
KIPL 180521Z 1806/1906 15010KT P6SM FEW150 BKN250
     FM181100 29005KT P6SM FEW150 BKN200
     FM181700 24008KT P6SM VCSH FEW100 OVC120
     FM190200 27006KT P6SM FEW080 SCT200=



000
FTUS45 KPSR 180500
TAFPHX
TAF
KPHX 180521Z 1806/1906 VRB05KT P6SM BKN250
     FM180800 09005KT P6SM FEW150 BKN250
     FM181700 17012KT P6SM FEW120 BKN180
     FM182200 23012G20KT P6SM VCSH OVC100
     FM190300 09012KT P6SM SCT080 BKN200=



000
FTUS45 KPSR 180500
TAFBLH
TAF
KBLH 180521Z 1806/1906 20008KT P6SM FEW150 BKN250
     FM181100 18006KT P6SM FEW150 BKN200
     FM181600 24008KT P6SM VCSH FEW100 OVC120
     FM190200 24006KT P6SM FEW080 BKN180=



000
FTUS45 KPSR 180300 AAA
TAFPHX
TAF AMD
KPHX 180308Z 1803/1824 VRB05KT P6SM BKN250
     FM180800 09005KT P6SM FEW150 BKN250
     FM181700 17012KT P6SM FEW120 BKN180
     FM182200 23012G20KT P6SM VCSH OVC100=



000
FTUS45 KPSR 172300
TAFBLH
TAF
KBLH 172321Z 1800/1824 18012G20KT P6SM SCT250
     FM180400 19005KT P6SM FEW150 BKN250
     FM181100 18006KT P6SM FEW150 BKN200
     FM181600 24008KT P6SM VCSH FEW100 OVC120=



000
FTUS45 KPSR 172300
TAFIWA
TAF
KIWA 172321Z 1800/1824 25007KT P6SM BKN250
     FM180300 VRB05KT P6SM BKN250
     FM180800 09005KT P6SM FEW150 BKN250
     FM181600 17012KT P6SM FEW120 BKN180
     FM182200 23012G20KT P6SM VCSH OVC100
      AMD LTD TO CLD VIS AND WIND 1803/1813=



000
FTUS45 KPSR 172300
TAFPHX
TAF
KPHX 172321Z 1800/1824 25008KT P6SM BKN250
     FM180300 VRB05KT P6SM BKN250
     FM180800 09005KT P6SM FEW150 BKN250
     FM181700 17012KT P6SM FEW120 BKN180
     FM182200 23012G20KT P6SM VCSH OVC100=



000
FTUS45 KPSR 172300
TAFIPL
TAF
KIPL 172321Z 1800/1824 14012KT P6SM BKN250
     FM180300 15005KT P6SM FEW150 BKN250
     FM181100 29005KT P6SM FEW150 BKN200
     FM181600 24008KT P6SM VCSH FEW100 OVC120=



000
FTUS45 KPSR 172100 AAA
TAFBLH
TAF AMD
KBLH 172112Z 1721/1818 18012G20KT P6SM SCT250
     FM180400 19005KT P6SM FEW150 BKN250
     FM181600 18012KT P6SM SCT150 BKN250=



000
FTUS45 KPSR 172100 AAA
TAFIPL
TAF AMD
KIPL 172111Z 1721/1818 14012KT P6SM SCT250
     FM180500 15005KT P6SM FEW150 BKN250
     FM181000 20009KT P6SM SCT150 BKN250=



000
FTUS45 KPSR 172100 AAA
TAFPHX
TAF AMD
KPHX 172108Z 1721/1818 VRB03KT P6SM SKC
     FM172200 25006KT P6SM FEW250
     FM180800 09005KT P6SM FEW150 SCT250
     FM181500 14009KT P6SM SCT150 BKN250=



    US Dept of Commerce
    National Oceanic and Atmospheric Administration
    National Weather Service
    1325 East West Highway
    Silver Spring, MD 20910
    Page Author: NWS Internet Services Team
Disclaimer
Information Quality
Credits
Glossary
Privacy Policy
Freedom of Information Act (FOIA)
About Us
Career Opportunities